createdAt,value
2023-04-08T16:29:39.012Z,34.42
2023-04-08T16:32:06.053Z,34.41
2023-04-08T16:34:33.324Z,34.53
2023-04-08T16:37:00.577Z,34.41
2023-04-08T16:39:28.428Z,34.50
2023-04-08T16:41:55.478Z,34.53
2023-04-08T16:44:22.556Z,34.53
2023-04-08T16:46:49.656Z,34.45
2023-04-08T16:49:18.264Z,34.39
2023-04-08T16:51:45.569Z,34.34
2023-04-08T16:54:12.674Z,34.47
2023-04-08T16:56:44.506Z,34.40
2023-04-08T16:59:12.978Z,34.43
2023-04-08T17:01:40.066Z,34.41
2023-04-08T17:04:08.100Z,34.46
2023-04-08T17:06:36.506Z,34.42
2023-04-08T17:09:04.316Z,34.33
2023-04-08T17:11:31.514Z,34.39
2023-04-08T17:13:58.927Z,34.30
2023-04-08T17:16:26.020Z,34.32
2023-04-08T17:18:53.130Z,34.35
2023-04-08T17:21:20.458Z,34.35
2023-04-08T17:23:47.547Z,34.32
2023-04-08T17:26:14.943Z,34.39
2023-04-08T17:28:42.043Z,34.36
2023-04-08T17:31:09.912Z,34.36
2023-04-08T17:33:37.317Z,34.29
2023-04-08T17:36:04.927Z,34.33
2023-04-08T17:38:32.466Z,34.33
2023-04-08T17:40:59.561Z,34.39
2023-04-08T17:43:26.667Z,34.33
2023-04-08T17:45:53.910Z,34.28
2023-04-08T17:48:20.953Z,34.28
2023-04-08T17:50:48.018Z,34.23
2023-04-08T17:53:15.188Z,34.23
2023-04-08T17:55:42.238Z,34.19
2023-04-08T17:58:09.467Z,34.13
2023-04-08T18:00:36.505Z,34.06
2023-04-08T18:03:03.593Z,33.89
2023-04-08T18:05:31.760Z,33.82
2023-04-08T18:07:59.573Z,33.59
2023-04-08T18:10:26.713Z,33.59
2023-04-08T18:13:03.687Z,33.45
2023-04-08T18:15:36.447Z,33.51
2023-04-08T18:18:03.915Z,33.42
2023-04-08T18:20:31.048Z,33.38
2023-04-08T18:23:00.437Z,33.33
2023-04-08T18:25:27.769Z,33.32
2023-04-08T18:27:54.751Z,33.34
2023-04-08T18:30:21.801Z,33.26
2023-04-08T18:32:48.918Z,33.20
2023-04-08T18:35:16.004Z,33.09
2023-04-08T18:37:43.079Z,32.96
2023-04-08T18:40:10.669Z,32.95
2023-04-08T18:42:37.712Z,32.83
2023-04-08T18:45:05.254Z,32.85
2023-04-08T18:47:32.472Z,32.85
2023-04-08T18:49:59.602Z,32.79
2023-04-08T18:52:26.610Z,32.71
2023-04-08T18:54:53.747Z,32.72
2023-04-08T18:57:20.893Z,32.64
2023-04-08T18:59:49.405Z,32.55
2023-04-08T19:02:16.913Z,32.54
2023-04-08T19:04:44.119Z,32.52
2023-04-08T19:07:12.167Z,32.49
2023-04-08T19:09:39.286Z,32.41
2023-04-08T19:12:06.522Z,32.40
2023-04-08T19:14:33.538Z,32.42
2023-04-08T19:17:01.363Z,32.26
2023-04-08T19:19:28.726Z,32.32
2023-04-08T19:21:56.630Z,32.22
2023-04-08T19:24:23.801Z,32.22
2023-04-08T19:26:53.223Z,32.13
2023-04-08T19:29:23.208Z,32.11
2023-04-08T19:31:50.530Z,32.07
2023-04-08T19:34:17.543Z,32.01
2023-04-08T19:36:44.654Z,31.98
2023-04-08T19:39:11.704Z,31.95
2023-04-08T19:41:38.756Z,31.93
2023-04-08T19:44:06.153Z,31.92
2023-04-08T19:46:33.351Z,31.90
2023-04-08T19:49:00.896Z,31.82
2023-04-08T19:51:29.488Z,31.81
2023-04-08T19:53:57.104Z,31.91
2023-04-08T19:56:24.187Z,31.81
2023-04-08T19:58:52.141Z,31.85
2023-04-08T20:01:19.413Z,31.75
2023-04-08T20:03:50.671Z,31.84
2023-04-08T20:06:19.160Z,31.80
2023-04-08T20:08:46.759Z,31.71
2023-04-08T20:11:14.055Z,31.79
2023-04-08T20:13:41.346Z,31.73
2023-04-08T20:16:08.542Z,31.76
2023-04-08T20:18:35.597Z,31.76
2023-04-08T20:21:02.607Z,31.71
2023-04-08T20:23:29.735Z,31.68
2023-04-08T20:25:56.931Z,31.67
2023-04-08T20:28:24.175Z,31.65
2023-04-08T20:30:52.209Z,31.65
2023-04-08T20:33:19.483Z,31.58
2023-04-08T20:35:47.773Z,31.61
2023-04-08T20:38:14.939Z,31.50
2023-04-08T20:40:45.422Z,31.44
2023-04-08T20:43:12.722Z,31.44
2023-04-08T20:45:42.191Z,31.39
2023-04-08T20:48:16.852Z,31.45
2023-04-08T20:50:44.026Z,31.37
2023-04-08T20:53:17.267Z,31.40
2023-04-08T20:55:44.374Z,31.40
2023-04-08T20:58:12.007Z,31.34
2023-04-08T21:00:39.333Z,31.38
2023-04-08T21:03:06.768Z,31.26
2023-04-08T21:05:41.267Z,31.25
2023-04-08T21:08:08.421Z,31.25
2023-04-08T21:10:35.609Z,31.29
2023-04-08T21:13:02.666Z,31.40
2023-04-08T21:15:30.085Z,31.44
2023-04-08T21:17:57.203Z,31.54
2023-04-08T21:20:24.417Z,31.48
2023-04-08T21:22:51.680Z,31.58
2023-04-08T21:25:18.762Z,31.49
2023-04-08T21:27:45.936Z,31.58
2023-04-08T21:35:57.287Z,31.49
2023-04-08T21:38:24.638Z,31.53
2023-04-08T21:40:52.270Z,31.54
2023-04-08T21:43:31.891Z,31.47
2023-04-08T21:45:58.946Z,31.27
2023-04-08T21:48:26.058Z,31.22
2023-04-08T21:50:53.612Z,31.29
2023-04-08T21:53:22.442Z,31.17
2023-04-08T21:55:49.561Z,31.23
2023-04-08T21:58:17.499Z,31.08
2023-04-08T22:00:45.038Z,31.21
2023-04-08T22:03:12.362Z,31.16
2023-04-08T22:05:39.671Z,31.08
2023-04-08T22:08:06.698Z,31.13
2023-04-08T22:10:33.832Z,31.01
2023-04-08T22:13:00.880Z,30.95
2023-04-08T22:15:28.249Z,30.85
2023-04-08T22:17:55.302Z,30.83
2023-04-08T22:20:22.414Z,30.80
2023-04-08T22:22:49.558Z,30.73
2023-04-08T22:25:16.699Z,30.73
2023-04-08T22:27:43.773Z,30.66
2023-04-08T22:30:11.544Z,30.60
2023-04-08T22:32:38.606Z,30.57
2023-04-08T22:35:15.006Z,30.57
2023-04-08T22:37:42.258Z,30.57
2023-04-08T22:40:09.962Z,30.51
2023-04-08T22:42:37.238Z,30.44
2023-04-08T22:45:05.310Z,30.52
2023-04-08T22:47:32.287Z,30.35
2023-04-08T22:49:59.490Z,30.43
2023-04-08T22:52:26.588Z,30.41
2023-04-08T22:54:53.610Z,30.34
2023-04-08T22:57:20.674Z,30.37
2023-04-08T22:59:47.699Z,30.29
2023-04-08T23:02:14.800Z,30.25
2023-04-08T23:04:54.164Z,30.30
2023-04-08T23:07:21.227Z,30.22
2023-04-08T23:09:48.280Z,30.26
2023-04-08T23:12:15.306Z,30.21
2023-04-08T23:14:42.339Z,30.19
2023-04-08T23:17:12.213Z,30.19
2023-04-08T23:19:39.262Z,30.20
2023-04-08T23:22:06.539Z,30.20
2023-04-08T23:24:34.558Z,30.17
2023-04-08T23:27:02.750Z,30.25
2023-04-08T23:29:30.354Z,30.20
2023-04-08T23:31:58.122Z,30.19
2023-04-08T23:34:48.411Z,30.23
2023-04-08T23:37:15.682Z,30.16
2023-04-08T23:39:42.805Z,30.25
2023-04-08T23:42:09.930Z,30.20
2023-04-08T23:47:03.634Z,30.13
2023-04-08T23:49:30.778Z,30.13
2023-04-08T23:51:57.814Z,30.20
2023-04-08T23:54:25.044Z,30.09
2023-04-08T23:56:52.276Z,30.11
2023-04-08T23:59:19.471Z,30.07
